createdAt,value
2022-11-30T09:38:43.446Z,40.13
2022-11-30T09:41:27.671Z,39.23
2022-11-30T09:44:03.853Z,36.97
2022-11-30T09:46:35.687Z,38.13
2022-11-30T09:49:04.522Z,38.27
2022-11-30T09:51:39.439Z,37.63
2022-11-30T09:54:14.149Z,37.57
2022-11-30T09:56:44.129Z,38.93
2022-11-30T09:59:17.066Z,39.47
2022-11-30T10:01:46.454Z,38.17
2022-11-30T10:04:22.680Z,36.67
2022-11-30T10:07:01.263Z,36.63
2022-11-30T10:09:39.463Z,37.43
2022-11-30T10:12:12.305Z,36.60
2022-11-30T10:15:21.891Z,35.07
2022-11-30T10:17:54.884Z,37.20
2022-11-30T10:20:43.115Z,37.30
2022-11-30T10:23:20.983Z,36.57
2022-11-30T10:25:55.532Z,36.33
2022-11-30T10:28:49.793Z,36.67
2022-11-30T10:31:18.475Z,37.70
2022-11-30T10:33:48.126Z,39.30
2022-11-30T10:36:22.504Z,37.03
2022-11-30T10:38:53.278Z,37.37
2022-11-30T10:41:26.222Z,37.40
2022-11-30T10:43:57.967Z,38.53
2022-11-30T10:46:29.849Z,37.17
2022-11-30T10:49:00.482Z,36.50
2022-11-30T10:51:28.456Z,38.43
2022-11-30T10:53:56.363Z,37.20
2022-11-30T10:56:26.483Z,37.13
2022-11-30T10:58:58.000Z,39.20
2022-11-30T11:01:34.259Z,36.97
2022-11-30T11:04:10.086Z,36.83
2022-11-30T11:06:42.138Z,37.47
2022-11-30T11:09:24.976Z,37.47
2022-11-30T11:11:56.175Z,37.43
2022-11-30T11:14:26.286Z,37.23
2022-11-30T11:16:57.227Z,37.70
2022-11-30T11:19:34.309Z,37.97
2022-11-30T11:22:04.554Z,39.03
2022-11-30T11:24:32.667Z,38.67
2022-11-30T11:27:01.857Z,37.00
2022-11-30T11:29:34.731Z,38.53
2022-11-30T11:32:24.776Z,38.83
2022-11-30T11:34:52.718Z,37.87
2022-11-30T11:37:22.769Z,38.50
2022-11-30T11:40:04.023Z,38.70
2022-11-30T11:42:36.677Z,38.83
2022-11-30T11:45:05.755Z,38.50
2022-11-30T11:47:40.183Z,38.03
2022-11-30T11:50:49.998Z,37.17
2022-11-30T11:53:25.730Z,33.80
2022-11-30T11:55:56.680Z,37.93
2022-11-30T11:58:32.849Z,38.50
2022-11-30T12:01:37.574Z,38.43
2022-11-30T12:04:01.657Z,35.90
2022-11-30T12:06:30.660Z,37.23
2022-11-30T12:09:02.511Z,36.90
2022-11-30T12:11:33.453Z,38.63
2022-11-30T12:14:09.274Z,38.00
2022-11-30T12:16:44.585Z,37.67
2022-11-30T12:19:15.453Z,38.53
2022-11-30T12:21:52.557Z,38.30
2022-11-30T12:24:30.433Z,39.60
2022-11-30T12:27:00.535Z,39.03
2022-11-30T12:29:42.175Z,38.57
2022-11-30T12:32:21.567Z,39.87
2022-11-30T12:34:58.410Z,41.47
2022-11-30T12:37:31.100Z,41.50
2022-11-30T12:40:04.965Z,43.23
2022-11-30T12:42:39.387Z,41.37
2022-11-30T12:45:17.009Z,41.27
2022-11-30T12:47:51.096Z,43.87
2022-11-30T12:50:43.165Z,46.90
2022-11-30T12:53:18.960Z,44.77
2022-11-30T12:55:51.664Z,44.83
2022-11-30T12:58:23.293Z,43.70
2022-11-30T13:01:05.045Z,46.77
2022-11-30T13:03:44.026Z,52.97
2022-11-30T13:06:16.501Z,43.27
2022-11-30T13:08:49.477Z,42.60
2022-11-30T13:11:19.904Z,40.77
2022-11-30T13:13:51.805Z,42.43
2022-11-30T13:16:22.419Z,42.43
2022-11-30T13:18:51.574Z,42.17
2022-11-30T13:21:24.151Z,41.53
2022-11-30T13:23:58.156Z,42.77
2022-11-30T13:26:30.278Z,41.43
2022-11-30T13:29:08.793Z,42.03
2022-11-30T13:31:40.897Z,42.77
2022-11-30T13:34:23.946Z,42.33
2022-11-30T13:36:51.851Z,44.17
2022-11-30T13:39:23.058Z,40.73
2022-11-30T13:41:53.557Z,44.73
2022-11-30T13:44:26.472Z,44.73
2022-11-30T13:46:55.854Z,42.67
2022-11-30T13:49:27.375Z,43.50
2022-11-30T13:52:20.857Z,43.90
2022-11-30T13:54:46.089Z,45.10
2022-11-30T13:57:19.658Z,45.20
2022-11-30T13:59:49.384Z,43.33
2022-11-30T14:02:53.996Z,45.10
2022-11-30T14:05:41.404Z,44.13
2022-11-30T14:08:32.209Z,45.30
2022-11-30T14:11:38.309Z,44.37
2022-11-30T14:14:45.123Z,42.87
2022-11-30T14:17:16.744Z,46.37
2022-11-30T14:19:47.295Z,46.20
2022-11-30T14:22:16.065Z,45.57
2022-11-30T14:24:46.905Z,47.10
2022-11-30T14:27:18.335Z,47.97
2022-11-30T14:29:53.059Z,48.57
2022-11-30T14:32:30.359Z,48.07
2022-11-30T14:35:09.118Z,46.30
2022-11-30T14:37:42.899Z,47.30
2022-11-30T14:40:19.030Z,50.20
2022-11-30T14:42:49.471Z,48.47
2022-11-30T14:45:27.649Z,47.70
2022-11-30T14:48:05.795Z,47.80
2022-11-30T14:50:36.075Z,46.83
2022-11-30T14:53:19.581Z,45.97
2022-11-30T14:55:52.449Z,42.90
2022-11-30T14:58:24.401Z,42.40
2022-11-30T15:00:52.587Z,42.20
2022-11-30T15:03:24.873Z,44.10
2022-11-30T15:05:55.448Z,41.83
2022-11-30T15:08:23.917Z,38.53
2022-11-30T15:10:52.334Z,43.10
2022-11-30T15:13:20.711Z,39.60
2022-11-30T15:15:53.885Z,41.03
2022-11-30T15:18:22.654Z,41.93
2022-11-30T15:20:54.865Z,39.33
2022-11-30T15:23:22.838Z,42.60
2022-11-30T15:25:52.109Z,42.80
2022-11-30T15:28:22.318Z,37.63
2022-11-30T15:30:54.742Z,40.40
2022-11-30T15:33:24.576Z,39.43
2022-11-30T15:36:18.801Z,41.13
2022-11-30T15:38:50.242Z,42.17
2022-11-30T15:41:20.404Z,36.53
2022-11-30T15:43:53.364Z,37.37
2022-11-30T15:46:32.602Z,37.17
2022-11-30T15:49:13.662Z,38.13
2022-11-30T15:51:45.065Z,42.13
2022-11-30T15:54:12.965Z,41.63
2022-11-30T15:56:40.834Z,41.30
2022-11-30T15:59:22.551Z,39.37
2022-11-30T16:02:01.950Z,43.00
2022-11-30T16:04:30.543Z,42.73
2022-11-30T16:06:59.724Z,44.43
2022-11-30T16:09:32.454Z,40.47
2022-11-30T16:12:01.923Z,39.70
2022-11-30T16:14:29.997Z,33.80
2022-11-30T16:16:57.989Z,40.93
2022-11-30T16:19:25.920Z,38.93
2022-11-30T16:21:53.737Z,39.70
2022-11-30T16:24:24.455Z,40.37
2022-11-30T16:26:52.470Z,40.20
2022-11-30T16:29:20.591Z,39.90
2022-11-30T16:31:49.066Z,39.33
2022-11-30T16:34:16.938Z,42.17
2022-11-30T16:36:44.780Z,37.73
2022-11-30T16:39:13.260Z,39.57
2022-11-30T16:41:45.142Z,41.57
2022-11-30T16:44:14.955Z,42.53
2022-11-30T16:46:42.834Z,43.67
2022-11-30T16:49:10.690Z,42.53
2022-11-30T16:51:38.484Z,39.70
2022-11-30T16:54:06.541Z,40.03
2022-11-30T16:56:34.379Z,41.20
2022-11-30T16:59:03.539Z,41.60
2022-11-30T17:01:36.028Z,39.63
2022-11-30T17:04:10.834Z,40.57
2022-11-30T17:06:38.739Z,40.93
2022-11-30T17:09:06.649Z,41.50
2022-11-30T17:11:37.166Z,40.23
2022-11-30T17:14:06.638Z,40.87
2022-11-30T17:16:34.968Z,41.23
2022-11-30T17:19:02.779Z,40.37
2022-11-30T17:21:32.442Z,39.63
2022-11-30T17:24:00.298Z,40.27
2022-11-30T17:26:28.634Z,37.43
2022-11-30T17:28:56.787Z,38.53
2022-11-30T17:31:26.042Z,37.97
2022-11-30T17:33:53.947Z,39.53
2022-11-30T17:36:23.218Z,37.90
2022-11-30T17:38:51.080Z,41.47
2022-11-30T17:41:20.265Z,41.70
2022-11-30T17:43:48.626Z,42.97
2022-11-30T17:46:18.928Z,38.13
2022-11-30T17:48:49.295Z,38.87
2022-11-30T17:51:17.483Z,40.10
2022-11-30T17:53:45.583Z,42.20
2022-11-30T17:56:14.879Z,38.23
2022-11-30T17:58:44.535Z,38.87
2022-11-30T18:01:17.421Z,40.73
2022-11-30T18:03:45.455Z,38.97
2022-11-30T18:06:15.052Z,40.67
2022-11-30T18:08:43.277Z,39.97
2022-11-30T18:11:11.666Z,39.07
2022-11-30T18:13:39.654Z,40.23
2022-11-30T18:16:09.312Z,39.20
2022-11-30T18:18:37.124Z,37.47
2022-11-30T18:21:06.314Z,38.33
2022-11-30T18:23:36.504Z,38.93
2022-11-30T18:26:05.360Z,40.80
2022-11-30T18:28:33.166Z,38.87
2022-11-30T18:31:01.429Z,39.97
2022-11-30T18:33:29.309Z,39.73
2022-11-30T18:35:58.418Z,36.63
2022-11-30T18:38:34.293Z,37.40
2022-11-30T18:41:07.364Z,39.03
2022-11-30T18:43:35.473Z,36.23
2022-11-30T18:46:04.324Z,36.37
2022-11-30T18:48:32.315Z,36.83
2022-11-30T18:51:00.318Z,35.90
2022-11-30T18:53:28.195Z,37.33
2022-11-30T18:55:56.175Z,36.93
2022-11-30T18:58:25.409Z,36.53
2022-11-30T19:00:53.251Z,40.13
2022-11-30T19:03:21.047Z,37.47
2022-11-30T19:05:48.952Z,37.63
2022-11-30T19:08:16.729Z,39.77
2022-11-30T19:10:44.643Z,40.30
2022-11-30T19:13:12.473Z,36.53
2022-11-30T19:15:42.896Z,38.70
2022-11-30T19:18:11.908Z,40.73
2022-11-30T19:20:40.166Z,38.83
2022-11-30T19:23:08.320Z,37.33
2022-11-30T19:25:36.142Z,39.63
2022-11-30T19:28:03.984Z,39.63
2022-11-30T19:30:31.929Z,37.90
2022-11-30T19:33:01.137Z,36.17
2022-11-30T19:35:28.998Z,38.93
2022-11-30T19:37:56.834Z,40.20
2022-11-30T19:40:24.875Z,40.10
2022-11-30T19:42:52.721Z,42.10
2022-11-30T19:45:20.577Z,39.30
2022-11-30T19:47:48.428Z,42.43
2022-11-30T19:50:17.813Z,36.33
2022-11-30T19:52:45.885Z,43.30
2022-11-30T19:55:13.789Z,41.80
2022-11-30T19:57:41.591Z,42.37
2022-11-30T20:00:10.406Z,39.23
2022-11-30T20:02:41.392Z,39.40
2022-11-30T20:05:10.136Z,39.17
2022-11-30T20:07:39.328Z,40.60
2022-11-30T20:10:09.856Z,40.00
2022-11-30T20:12:37.752Z,39.13
2022-11-30T20:15:06.180Z,38.77
2022-11-30T20:17:34.085Z,40.70
2022-11-30T20:20:01.926Z,40.23
2022-11-30T20:22:29.739Z,51.50
2022-11-30T20:24:58.879Z,40.50
2022-11-30T20:27:26.777Z,38.00
2022-11-30T20:29:55.549Z,41.67
2022-11-30T20:32:24.163Z,38.17
2022-11-30T20:34:52.087Z,38.70
2022-11-30T20:37:19.981Z,39.53
2022-11-30T20:39:47.874Z,37.77
2022-11-30T20:42:17.047Z,39.73
2022-11-30T20:44:44.844Z,38.17
2022-11-30T20:47:12.691Z,38.03
2022-11-30T20:49:40.648Z,37.90
2022-11-30T20:52:08.498Z,36.97
2022-11-30T20:54:36.360Z,36.63
2022-11-30T20:57:04.333Z,36.63
2022-11-30T20:59:34.406Z,37.57
2022-11-30T21:02:02.326Z,35.47
2022-11-30T21:04:30.180Z,36.10
2022-11-30T21:06:58.023Z,38.37
2022-11-30T21:09:25.829Z,33.83
2022-11-30T21:11:53.601Z,36.87
2022-11-30T21:14:21.681Z,36.27
2022-11-30T21:16:50.843Z,37.00
2022-11-30T21:19:18.676Z,36.23
2022-11-30T21:21:49.004Z,37.17
2022-11-30T21:24:16.837Z,38.10
2022-11-30T21:26:44.805Z,36.27
2022-11-30T21:29:15.019Z,37.37
2022-11-30T21:31:43.228Z,39.07
2022-11-30T21:34:12.496Z,38.13
2022-11-30T21:36:40.332Z,38.23
2022-11-30T21:39:08.847Z,37.10
2022-11-30T21:41:38.261Z,38.30
2022-11-30T21:44:06.877Z,38.13
2022-11-30T21:46:35.057Z,37.77
2022-11-30T21:49:03.679Z,48.40
2022-11-30T21:51:32.921Z,37.73
2022-11-30T21:54:02.430Z,56.73
2022-11-30T21:56:32.360Z,36.33
2022-11-30T21:59:00.926Z,37.40
2022-11-30T22:01:30.413Z,36.80
2022-11-30T22:03:59.085Z,34.10
2022-11-30T22:06:28.307Z,35.57
2022-11-30T22:09:02.825Z,36.63
2022-11-30T22:11:31.606Z,35.53
2022-11-30T22:13:59.678Z,34.60
2022-11-30T22:16:35.269Z,35.23
2022-11-30T22:19:04.271Z,36.67
2022-11-30T22:21:32.461Z,35.27
2022-11-30T22:24:02.997Z,36.50
2022-11-30T22:26:32.122Z,36.20
2022-11-30T22:29:01.657Z,35.07
2022-11-30T22:31:31.211Z,34.20
2022-11-30T22:33:59.308Z,35.50
2022-11-30T22:36:28.716Z,33.10
2022-11-30T22:38:58.592Z,36.07
2022-11-30T22:41:28.875Z,35.80
2022-11-30T22:43:57.893Z,34.83
2022-11-30T22:46:27.479Z,36.53
2022-11-30T22:48:55.345Z,34.07
2022-11-30T22:51:24.624Z,34.83
2022-11-30T22:53:53.289Z,34.73
2022-11-30T22:56:22.921Z,35.47
2022-11-30T22:58:54.104Z,35.80
2022-11-30T23:01:22.984Z,35.13
2022-11-30T23:03:53.169Z,35.77
2022-11-30T23:06:22.127Z,37.23
2022-11-30T23:08:51.305Z,36.90
2022-11-30T23:11:21.084Z,35.03
2022-11-30T23:13:49.064Z,35.50
2022-11-30T23:16:18.832Z,35.87
2022-11-30T23:18:48.904Z,35.87
2022-11-30T23:21:18.656Z,36.10
2022-11-30T23:23:47.279Z,36.50
2022-11-30T23:26:16.453Z,37.80
2022-11-30T23:28:45.100Z,37.00
2022-11-30T23:31:34.128Z,38.03
2022-11-30T23:34:04.463Z,37.33
2022-11-30T23:36:32.280Z,37.80
2022-11-30T23:39:02.160Z,36.57
2022-11-30T23:41:30.120Z,38.27
2022-11-30T23:43:58.062Z,37.70
2022-11-30T23:46:26.291Z,34.17
2022-11-30T23:48:55.542Z,33.60
2022-11-30T23:51:25.483Z,32.57
2022-11-30T23:53:53.812Z,33.30
2022-11-30T23:56:23.195Z,31.43
2022-11-30T23:58:51.014Z,32.23
